KFRR/FRR METAR and TAF weather

Enter ICAO airport designator
Station Type Date Time Source
KFRR METAR 2022/09/26 09:35 UTC NOAA

KFRR 260935Z AUTO 22003KT 10SM CLR 13/10 A2973 RMK AO1


Station Type Date Time Source
KFRR Decoded METAR 2022/09/26 09:35 UTC NOAA

Station name not available
Sep 26, 2022 - 05:35 AM EDT / 2022.09.26 0935 UTC
Wind: from the SW (220 degrees) at 3 MPH (3 KT):0
Visibility: 10 mile(s):0
Sky conditions: clear
Temperature: 55 F (13 C)
Dew Point: 50 F (10 C)
Relative Humidity: 81%
Pressure (altimeter): 29.73 in. Hg (1006 hPa)
ob: KFRR 260935Z AUTO 22003KT 10SM CLR 13/10 A2973 RMK AO1
cycle: 9

Station Type Date Time Source
KFRR TAF UTC NOAA

Error!

Example: see airport list